createdAt,value
2018-12-12T00:01:25.015Z,88.03
2018-12-12T00:03:52.439Z,88.30
2018-12-12T00:06:19.952Z,88.03
2018-12-12T00:08:48.151Z,88.07
2018-12-12T00:11:15.571Z,87.83
2018-12-12T00:13:43.052Z,86.97
2018-12-12T00:16:10.475Z,87.53
2018-12-12T00:18:38.662Z,87.47
2018-12-12T00:21:06.140Z,87.69
2018-12-12T00:23:33.884Z,87.95
2018-12-12T00:26:01.371Z,87.58
2018-12-12T00:28:28.791Z,87.65
2018-12-12T00:30:56.280Z,87.29
2018-12-12T00:33:24.428Z,87.16
2018-12-12T00:35:51.847Z,87.44
2018-12-12T00:38:19.251Z,87.97
2018-12-12T00:40:46.683Z,88.07
2018-12-12T00:43:15.009Z,87.59
2018-12-12T00:45:42.447Z,87.88
2018-12-12T00:48:09.871Z,87.56
2018-12-12T00:50:37.466Z,87.74
2018-12-12T00:53:04.884Z,87.84
2018-12-12T00:55:32.370Z,88.30
2018-12-12T00:57:59.836Z,88.13
2018-12-12T01:00:27.312Z,88.50
2018-12-12T01:02:55.098Z,88.90
2018-12-12T01:05:22.520Z,88.57
2018-12-12T01:07:50.395Z,89.18
2018-12-12T01:10:17.814Z,88.90
2018-12-12T01:12:45.278Z,89.02
2018-12-12T01:15:12.716Z,88.61
2018-12-12T01:17:40.144Z,89.10
2018-12-12T01:20:07.561Z,88.60
2018-12-12T01:22:35.014Z,89.13
2018-12-12T01:25:02.480Z,88.65
2018-12-12T01:27:29.952Z,88.19
2018-12-12T01:29:58.099Z,88.32
2018-12-12T01:32:25.583Z,88.20
2018-12-12T01:34:53.232Z,88.22
2018-12-12T01:37:20.691Z,87.97
2018-12-12T01:39:48.151Z,88.35
2018-12-12T01:42:15.619Z,88.48
2018-12-12T01:44:43.051Z,88.57
2018-12-12T01:47:10.471Z,88.37
2018-12-12T01:49:38.806Z,88.84
2018-12-12T01:52:06.267Z,88.89
2018-12-12T01:54:33.728Z,88.45
2018-12-12T01:57:01.213Z,88.48
2018-12-12T01:59:28.743Z,88.41
2018-12-12T02:01:56.207Z,88.20
2018-12-12T02:04:24.152Z,88.29
2018-12-12T02:06:51.627Z,87.91
2018-12-12T02:09:19.037Z,88.14
2018-12-12T02:11:46.547Z,88.18
2018-12-12T02:14:13.977Z,87.68
2018-12-12T02:16:41.461Z,88.08
2018-12-12T02:19:08.932Z,87.80
2018-12-12T02:21:36.376Z,88.07
2018-12-12T02:24:04.721Z,87.98
2018-12-12T02:26:32.216Z,87.40
2018-12-12T02:28:59.637Z,87.80
2018-12-12T02:31:27.076Z,87.88
2018-12-12T02:33:55.324Z,87.25
2018-12-12T02:36:22.874Z,87.56
2018-12-12T02:38:50.287Z,87.13
2018-12-12T02:41:17.711Z,87.40
2018-12-12T02:43:45.137Z,87.35
2018-12-12T02:46:12.559Z,87.29
2018-12-12T02:48:40.051Z,87.40
2018-12-12T02:51:07.479Z,87.15
2018-12-12T02:53:35.457Z,87.57
2018-12-12T02:56:02.879Z,87.49
2018-12-12T02:58:30.388Z,87.54
2018-12-12T03:00:57.949Z,87.77
2018-12-12T03:03:25.843Z,86.86
2018-12-12T03:05:53.274Z,87.21
2018-12-12T03:08:20.831Z,87.03
2018-12-12T03:10:48.247Z,87.03
2018-12-12T03:13:15.680Z,87.45
2018-12-12T03:15:43.466Z,87.60
2018-12-12T03:18:10.973Z,87.41
2018-12-12T03:20:38.532Z,87.61
2018-12-12T03:23:05.981Z,88.21
2018-12-12T03:25:33.556Z,88.09
2018-12-12T03:28:01.016Z,88.68
2018-12-12T03:30:28.561Z,88.67
2018-12-12T03:32:56.026Z,89.12
2018-12-12T03:35:23.515Z,89.85
2018-12-12T03:37:50.944Z,89.42
2018-12-12T03:40:18.915Z,89.34
2018-12-12T03:42:46.687Z,89.61
2018-12-12T03:45:14.112Z,89.52
2018-12-12T03:47:41.550Z,89.39
2018-12-12T03:50:09.149Z,89.32
2018-12-12T03:52:36.630Z,89.36
2018-12-12T03:55:04.060Z,88.82
2018-12-12T03:57:31.533Z,89.38
2018-12-12T03:59:59.014Z,89.26
2018-12-12T04:02:26.540Z,89.56
2018-12-12T04:04:54.891Z,89.35
2018-12-12T04:07:22.314Z,89.55
2018-12-12T04:09:49.831Z,89.10
2018-12-12T04:12:17.288Z,89.47
2018-12-12T04:14:44.971Z,89.53
2018-12-12T04:17:12.415Z,88.94
2018-12-12T04:19:39.875Z,89.28
2018-12-12T04:22:07.307Z,89.29
2018-12-12T04:24:35.091Z,89.62
2018-12-12T04:27:02.541Z,89.74
2018-12-12T04:29:30.885Z,88.90
2018-12-12T04:31:58.311Z,88.73
2018-12-12T04:34:26.311Z,88.65
2018-12-12T04:36:53.817Z,88.86
2018-12-12T04:39:21.269Z,88.14
2018-12-12T04:41:48.723Z,89.09
2018-12-12T04:44:16.143Z,88.94
2018-12-12T04:46:43.642Z,88.69
2018-12-12T04:49:11.114Z,88.95
2018-12-12T04:51:38.664Z,88.64
2018-12-12T04:54:06.139Z,88.54
2018-12-12T04:56:33.578Z,88.31
2018-12-12T04:59:01.305Z,88.78
2018-12-12T05:01:28.729Z,88.19
2018-12-12T05:03:56.151Z,87.82
2018-12-12T05:06:23.578Z,88.21
2018-12-12T05:08:51.062Z,88.37
2018-12-12T05:11:18.499Z,87.85
2018-12-12T05:13:46.001Z,87.93
2018-12-12T05:16:13.424Z,87.84
2018-12-12T05:18:40.904Z,88.53
2018-12-12T05:21:08.360Z,88.35
2018-12-12T05:23:35.815Z,88.40
2018-12-12T05:26:03.617Z,88.48
2018-12-12T05:28:31.144Z,89.08
2018-12-12T05:30:58.987Z,88.73
2018-12-12T05:33:26.458Z,88.37
2018-12-12T05:35:53.883Z,88.73
2018-12-12T05:38:21.321Z,88.58
2018-12-12T05:40:48.779Z,88.67
2018-12-12T05:43:16.259Z,88.66
2018-12-12T05:45:44.122Z,89.12
2018-12-12T05:48:11.571Z,89.45
2018-12-12T05:50:39.695Z,88.83
2018-12-12T05:53:07.130Z,89.32
2018-12-12T05:55:34.603Z,89.02
2018-12-12T05:58:02.035Z,89.19
2018-12-12T06:00:29.454Z,89.49
2018-12-12T06:02:57.033Z,89.18
2018-12-12T06:05:24.835Z,88.68
2018-12-12T06:07:52.269Z,89.31
2018-12-12T06:10:19.691Z,89.28
2018-12-12T06:12:47.192Z,89.36
2018-12-12T06:15:15.351Z,89.55
2018-12-12T06:17:42.775Z,89.65
2018-12-12T06:20:10.243Z,89.76
2018-12-12T06:22:38.093Z,89.46
2018-12-12T06:25:05.733Z,89.24
2018-12-12T06:27:33.296Z,89.58
2018-12-12T06:30:00.751Z,89.31
2018-12-12T06:32:28.949Z,88.74
2018-12-12T06:34:56.392Z,88.72
2018-12-12T06:37:23.844Z,89.05
2018-12-12T06:39:51.271Z,88.92
2018-12-12T06:42:18.763Z,88.87
2018-12-12T06:44:46.195Z,89.33
2018-12-12T06:47:13.773Z,88.83
2018-12-12T06:49:41.236Z,89.07
2018-12-12T06:52:08.727Z,88.54
2018-12-12T06:54:36.150Z,89.06
2018-12-12T06:57:03.611Z,88.86
2018-12-12T06:59:31.067Z,88.61
2018-12-12T07:01:58.625Z,88.71
2018-12-12T07:04:26.087Z,88.11
2018-12-12T07:06:53.543Z,88.82
2018-12-12T07:09:21.024Z,88.59
2018-12-12T07:11:48.551Z,88.31
2018-12-12T07:14:15.993Z,87.91
2018-12-12T07:16:43.995Z,88.40
2018-12-12T07:19:11.440Z,88.09
2018-12-12T07:21:38.904Z,88.07
2018-12-12T07:24:06.346Z,87.86
2018-12-12T07:26:33.826Z,87.55
2018-12-12T07:29:01.384Z,87.42
2018-12-12T07:31:28.804Z,87.93
2018-12-12T07:34:00.766Z,88.03
2018-12-12T07:36:26.073Z,88.03
2018-12-12T07:38:53.495Z,87.47
2018-12-12T07:41:20.954Z,87.44
2018-12-12T07:43:48.440Z,87.09
2018-12-12T07:46:16.205Z,86.78
2018-12-12T07:48:43.708Z,86.42
2018-12-12T07:51:11.150Z,87.00
2018-12-12T07:53:38.611Z,86.91
2018-12-12T07:56:06.027Z,86.67
2018-12-12T07:58:33.522Z,86.61
2018-12-12T08:01:00.951Z,87.08
2018-12-12T08:03:28.380Z,86.85
2018-12-12T08:05:55.803Z,86.60
2018-12-12T08:08:23.238Z,86.61
2018-12-12T08:10:50.703Z,85.92
2018-12-12T08:13:18.160Z,86.01
2018-12-12T08:15:46.067Z,86.13
2018-12-12T08:18:13.484Z,86.75
2018-12-12T08:20:40.964Z,86.55
2018-12-12T08:23:08.948Z,85.65
2018-12-12T08:25:37.817Z,85.74
2018-12-12T08:28:05.244Z,86.56
2018-12-12T08:30:32.722Z,86.26
2018-12-12T08:33:00.171Z,86.30
2018-12-12T08:35:27.603Z,86.57
2018-12-12T08:37:55.030Z,86.33
2018-12-12T08:40:22.559Z,85.99
2018-12-12T08:42:50.038Z,86.17
2018-12-12T08:45:17.479Z,86.13
2018-12-12T08:47:44.927Z,86.00
2018-12-12T08:50:12.397Z,86.23
2018-12-12T08:52:39.847Z,86.88
2018-12-12T08:55:07.390Z,85.88
2018-12-12T08:57:34.864Z,86.29
2018-12-12T09:00:02.306Z,86.18
2018-12-12T09:02:30.512Z,85.97
2018-12-12T09:04:57.935Z,86.03
2018-12-12T09:07:25.370Z,85.62
2018-12-12T09:09:52.863Z,85.68
2018-12-12T09:12:20.326Z,85.37
2018-12-12T09:14:47.789Z,85.32
2018-12-12T09:17:16.344Z,84.95
2018-12-12T09:19:43.823Z,85.10
2018-12-12T09:22:11.247Z,84.58
2018-12-12T09:24:38.739Z,84.96
2018-12-12T09:27:06.157Z,84.21
2018-12-12T09:29:33.594Z,84.41
2018-12-12T09:32:01.083Z,84.44
2018-12-12T09:34:28.607Z,85.08
2018-12-12T09:36:56.032Z,84.10
2018-12-12T09:39:23.455Z,83.54
2018-12-12T09:41:51.334Z,83.98
2018-12-12T09:44:18.810Z,83.29
2018-12-12T09:46:46.251Z,82.98
2018-12-12T09:49:13.684Z,82.62
2018-12-12T09:51:41.113Z,83.12
2018-12-12T09:54:08.598Z,83.56
2018-12-12T09:56:36.095Z,83.49
2018-12-12T09:59:03.563Z,82.64
2018-12-12T10:01:31.010Z,82.84
2018-12-12T10:03:58.435Z,82.86
2018-12-12T10:06:25.926Z,82.65
2018-12-12T10:08:53.365Z,83.39
2018-12-12T10:11:20.848Z,83.01
2018-12-12T10:13:48.306Z,83.26
2018-12-12T10:16:15.756Z,83.60
2018-12-12T10:18:43.227Z,82.76
2018-12-12T10:21:10.671Z,82.15
2018-12-12T10:23:38.098Z,82.36
2018-12-12T10:26:05.537Z,81.87
2018-12-12T10:28:32.947Z,82.57
2018-12-12T10:31:00.399Z,82.73
2018-12-12T10:33:27.959Z,82.27
2018-12-12T10:35:55.418Z,82.36
2018-12-12T10:38:22.838Z,81.93
2018-12-12T10:40:50.279Z,82.10
2018-12-12T10:43:17.694Z,82.22
2018-12-12T10:45:45.125Z,81.27
2018-12-12T10:48:12.555Z,81.18
2018-12-12T10:50:40.069Z,79.47
2018-12-12T10:53:07.519Z,80.04
2018-12-12T10:55:34.974Z,80.11
2018-12-12T10:58:02.421Z,80.87
2018-12-12T11:00:29.915Z,80.02
2018-12-12T11:03:01.540Z,80.77
2018-12-12T11:05:29.216Z,79.46
2018-12-12T11:07:56.808Z,79.25
2018-12-12T11:10:25.075Z,79.48
2018-12-12T11:12:52.616Z,79.92
2018-12-12T11:15:20.074Z,79.48
2018-12-12T11:17:47.524Z,79.74
2018-12-12T11:20:14.978Z,78.91
2018-12-12T11:22:42.407Z,79.00
2018-12-12T11:25:09.899Z,79.44
2018-12-12T11:27:37.319Z,78.49
2018-12-12T11:30:04.780Z,77.56
2018-12-12T11:32:32.430Z,77.12
2018-12-12T11:34:59.948Z,76.84
2018-12-12T11:37:27.723Z,78.47
2018-12-12T11:39:55.143Z,77.27
2018-12-12T11:42:22.655Z,77.31
2018-12-12T11:44:50.175Z,77.28
2018-12-12T11:47:17.643Z,78.38
2018-12-12T11:49:45.068Z,76.71
2018-12-12T11:52:12.507Z,76.42
2018-12-12T11:54:39.973Z,77.24
2018-12-12T11:57:08.456Z,76.30
2018-12-12T11:59:35.867Z,75.60
2018-12-12T12:02:03.547Z,75.99
2018-12-12T12:04:31.326Z,77.14
2018-12-12T12:06:58.762Z,77.25
2018-12-12T12:09:26.284Z,76.75
2018-12-12T12:11:53.720Z,77.29
2018-12-12T12:14:21.142Z,77.90
2018-12-12T12:16:48.655Z,74.52
2018-12-12T12:19:16.110Z,75.83
2018-12-12T12:21:43.535Z,74.67
2018-12-12T12:24:10.958Z,76.29
2018-12-12T12:26:38.438Z,76.14
2018-12-12T12:29:06.095Z,75.93
2018-12-12T12:31:33.667Z,76.14
2018-12-12T12:34:03.321Z,74.65
2018-12-12T12:36:30.527Z,74.94
2018-12-12T12:38:57.962Z,74.77
2018-12-12T12:41:25.388Z,74.38
2018-12-12T12:43:52.802Z,76.42
2018-12-12T12:46:20.222Z,75.80
2018-12-12T12:48:47.637Z,75.45
2018-12-12T12:51:15.075Z,75.35
2018-12-12T12:53:42.501Z,74.71
2018-12-12T12:56:09.922Z,74.74
2018-12-12T12:58:37.356Z,75.03
2018-12-12T13:01:04.781Z,74.91
2018-12-12T13:03:32.217Z,75.06
2018-12-12T13:05:59.667Z,75.83
2018-12-12T13:08:27.088Z,75.59
2018-12-12T13:10:54.520Z,74.75
2018-12-12T13:13:22.126Z,74.63
2018-12-12T13:15:49.827Z,74.51
2018-12-12T13:18:17.294Z,74.81
2018-12-12T13:20:44.720Z,75.41
2018-12-12T13:23:12.134Z,76.41
2018-12-12T13:25:39.562Z,75.54
2018-12-12T13:28:06.987Z,76.21
2018-12-12T13:30:34.420Z,77.08
2018-12-12T13:33:01.847Z,78.06
2018-12-12T13:35:29.266Z,75.75
2018-12-12T13:37:56.704Z,76.42
2018-12-12T13:40:24.130Z,76.38
2018-12-12T13:42:51.554Z,76.14
2018-12-12T13:45:19.040Z,75.71
2018-12-12T13:47:46.455Z,76.16
2018-12-12T13:50:13.880Z,76.55
2018-12-12T13:52:41.306Z,76.41
2018-12-12T13:55:08.816Z,77.17
2018-12-12T13:57:36.242Z,77.34
2018-12-12T14:00:03.664Z,77.54
2018-12-12T14:02:31.087Z,77.75
2018-12-12T14:04:58.505Z,77.74
2018-12-12T14:07:25.935Z,76.84
2018-12-12T14:09:53.405Z,77.25
2018-12-12T14:12:20.840Z,77.62
2018-12-12T14:14:48.263Z,78.97
2018-12-12T14:17:15.716Z,79.92
2018-12-12T14:19:43.159Z,78.89
2018-12-12T14:22:10.600Z,79.36
2018-12-12T14:24:38.036Z,78.08
2018-12-12T14:27:05.476Z,77.18
2018-12-12T14:29:32.895Z,78.39
2018-12-12T14:32:00.332Z,77.33
2018-12-12T14:34:29.334Z,77.38
2018-12-12T14:36:56.981Z,77.86
2018-12-12T14:39:24.432Z,77.23
2018-12-12T14:41:51.860Z,77.30
2018-12-12T14:44:19.275Z,77.39
2018-12-12T14:46:46.717Z,78.26
2018-12-12T14:49:14.142Z,78.32
2018-12-12T14:51:41.571Z,78.63
2018-12-12T14:54:08.989Z,78.14
2018-12-12T14:56:36.426Z,79.77
2018-12-12T14:59:03.844Z,80.55
2018-12-12T15:01:31.272Z,80.55
2018-12-12T15:03:58.695Z,79.75
2018-12-12T15:06:26.143Z,79.91
2018-12-12T15:08:53.582Z,79.30
2018-12-12T15:11:21.007Z,80.07
2018-12-12T15:13:48.453Z,80.56
2018-12-12T15:16:15.869Z,80.10
2018-12-12T15:18:43.297Z,79.89
2018-12-12T15:21:10.748Z,80.07
2018-12-12T15:23:38.188Z,80.68
2018-12-12T15:26:05.616Z,80.73
2018-12-12T15:28:33.049Z,80.84
2018-12-12T15:31:00.475Z,81.30
2018-12-12T15:33:27.896Z,81.78
2018-12-12T15:35:55.328Z,81.37
2018-12-12T15:38:22.760Z,81.29
2018-12-12T15:40:50.183Z,81.46
2018-12-12T15:43:17.613Z,82.00
2018-12-12T15:45:45.032Z,82.03
2018-12-12T15:48:12.468Z,82.31
2018-12-12T15:50:39.883Z,82.32
2018-12-12T15:53:07.322Z,82.93
2018-12-12T15:55:34.751Z,82.67
2018-12-12T15:58:02.185Z,82.75
2018-12-12T16:00:29.859Z,82.46
2018-12-12T16:02:57.336Z,82.07
2018-12-12T16:05:24.760Z,82.55
2018-12-12T16:07:52.193Z,82.20
2018-12-12T16:10:19.625Z,82.51
2018-12-12T16:12:47.132Z,81.99
2018-12-12T16:15:14.561Z,82.67
2018-12-12T16:17:41.995Z,81.86
2018-12-12T16:20:09.423Z,80.57
2018-12-12T16:22:36.850Z,80.22
2018-12-12T16:25:04.282Z,80.20
2018-12-12T16:27:31.719Z,79.90
2018-12-12T16:29:59.134Z,80.01
2018-12-12T16:32:26.577Z,80.35
2018-12-12T16:34:55.791Z,80.92
2018-12-12T16:37:23.413Z,79.92
2018-12-12T16:39:50.856Z,80.62
2018-12-12T16:42:18.283Z,79.23
2018-12-12T16:44:45.724Z,77.68
2018-12-12T16:47:13.160Z,76.08
2018-12-12T16:49:40.607Z,77.16
2018-12-12T16:52:08.037Z,75.85
2018-12-12T16:54:35.479Z,76.99
2018-12-12T16:57:02.922Z,76.90
2018-12-12T16:59:30.430Z,78.47
2018-12-12T17:01:57.871Z,81.24
2018-12-12T17:04:25.292Z,81.23
2018-12-12T17:06:52.720Z,82.61
2018-12-12T17:09:20.158Z,81.61
2018-12-12T17:11:47.583Z,80.43
2018-12-12T17:14:15.032Z,80.92
2018-12-12T17:16:42.451Z,81.90
2018-12-12T17:19:09.887Z,82.59
2018-12-12T17:21:37.327Z,83.97
2018-12-12T17:24:04.764Z,81.89
2018-12-12T17:26:32.202Z,81.53
2018-12-12T17:28:59.640Z,80.72
2018-12-12T17:31:27.068Z,79.36
2018-12-12T17:33:54.503Z,79.87
2018-12-12T17:36:21.932Z,80.11
2018-12-12T17:38:49.368Z,81.11
2018-12-12T17:41:16.814Z,79.85
2018-12-12T17:43:44.249Z,79.58
2018-12-12T17:46:11.685Z,80.00
2018-12-12T17:48:39.106Z,80.01
2018-12-12T17:51:06.540Z,79.42
2018-12-12T17:53:33.984Z,80.19
2018-12-12T17:56:01.415Z,80.83
2018-12-12T17:58:28.843Z,80.84
2018-12-12T18:00:56.307Z,80.41
2018-12-12T18:03:23.743Z,81.47
2018-12-12T18:05:51.175Z,82.81
2018-12-12T18:08:18.699Z,82.76
2018-12-12T18:10:46.123Z,82.62
2018-12-12T18:13:13.550Z,81.10
2018-12-12T18:15:40.982Z,81.54
2018-12-12T18:18:08.460Z,81.73
2018-12-12T18:20:35.893Z,81.22
2018-12-12T18:23:03.362Z,81.70
2018-12-12T18:25:30.951Z,82.48
2018-12-12T18:27:58.380Z,82.50
2018-12-12T18:30:25.819Z,83.62
2018-12-12T18:32:53.336Z,83.71
2018-12-12T18:35:21.947Z,83.75
2018-12-12T18:37:49.570Z,82.52
2018-12-12T18:40:17.022Z,82.41
2018-12-12T18:42:44.448Z,83.33
2018-12-12T18:45:11.891Z,83.78
2018-12-12T18:47:39.331Z,84.50
2018-12-12T18:50:06.777Z,82.46
2018-12-12T18:52:35.124Z,83.27
2018-12-12T18:55:02.628Z,84.33
2018-12-12T18:57:30.065Z,83.26
2018-12-12T18:59:57.493Z,83.96
2018-12-12T19:02:25.002Z,85.64
2018-12-12T19:04:52.455Z,85.21
2018-12-12T19:07:20.283Z,85.61
2018-12-12T19:09:47.799Z,86.00
2018-12-12T19:12:15.339Z,84.13
2018-12-12T19:14:48.247Z,83.44
2018-12-12T19:17:15.712Z,83.55
2018-12-12T19:19:43.244Z,83.43
2018-12-12T19:22:10.694Z,83.23
2018-12-12T19:24:38.175Z,83.13
2018-12-12T19:27:05.606Z,83.83
2018-12-12T19:29:33.174Z,84.23
2018-12-12T19:32:00.767Z,84.58
2018-12-12T19:34:28.199Z,85.01
2018-12-12T19:36:55.626Z,84.68
2018-12-12T19:39:23.115Z,84.03
2018-12-12T19:41:50.548Z,83.50
2018-12-12T19:44:18.143Z,83.11
2018-12-12T19:46:45.791Z,83.14
2018-12-12T19:49:13.254Z,82.71
2018-12-12T19:51:40.713Z,81.97
2018-12-12T19:54:08.151Z,82.26
2018-12-12T19:56:35.591Z,82.07
2018-12-12T19:59:03.048Z,82.36
2018-12-12T20:01:30.493Z,81.51
2018-12-12T20:03:58.009Z,82.40
2018-12-12T20:06:25.447Z,82.23
2018-12-12T20:08:52.871Z,82.38
2018-12-12T20:11:20.295Z,82.09
2018-12-12T20:13:48.188Z,81.62
2018-12-12T20:16:15.687Z,81.33
2018-12-12T20:18:43.121Z,81.04
2018-12-12T20:21:10.551Z,82.13
2018-12-12T20:23:37.984Z,81.89
2018-12-12T20:26:05.409Z,81.32
2018-12-12T20:28:32.826Z,82.21
2018-12-12T20:31:00.264Z,81.31
2018-12-12T20:33:27.700Z,81.17
2018-12-12T20:35:55.131Z,81.01
2018-12-12T20:38:22.571Z,81.62
2018-12-12T20:40:50.002Z,81.14
2018-12-12T20:43:17.423Z,82.06
2018-12-12T20:45:44.884Z,81.51
2018-12-12T20:48:12.327Z,81.63
2018-12-12T20:50:39.765Z,80.58
2018-12-12T20:53:07.187Z,80.53
2018-12-12T20:55:34.630Z,80.41
2018-12-12T20:58:02.051Z,81.22
2018-12-12T21:00:29.499Z,80.50
2018-12-12T21:02:56.969Z,80.28
2018-12-12T21:05:24.411Z,80.65
2018-12-12T21:07:51.866Z,80.09
2018-12-12T21:10:19.301Z,78.21
2018-12-12T21:12:46.718Z,77.11
2018-12-12T21:15:14.143Z,77.04
2018-12-12T21:17:41.582Z,77.02
2018-12-12T21:20:09.007Z,77.55
2018-12-12T21:22:36.449Z,77.57
2018-12-12T21:25:03.900Z,77.17
2018-12-12T21:27:31.330Z,78.26
2018-12-12T21:29:58.756Z,77.79
2018-12-12T21:32:26.183Z,77.97
2018-12-12T21:34:53.608Z,78.51
2018-12-12T21:37:21.042Z,78.63
2018-12-12T21:39:48.479Z,78.66
2018-12-12T21:42:15.916Z,78.32
2018-12-12T21:44:43.340Z,78.08
2018-12-12T21:47:10.775Z,77.47
2018-12-12T21:49:38.199Z,76.80
2018-12-12T21:52:05.641Z,76.19
2018-12-12T21:54:33.051Z,77.60
2018-12-12T21:57:00.479Z,77.10
2018-12-12T21:59:27.923Z,76.86
2018-12-12T22:01:55.383Z,76.87
2018-12-12T22:04:22.815Z,76.60
2018-12-12T22:06:50.244Z,76.41
2018-12-12T22:09:17.683Z,77.26
2018-12-12T22:11:45.111Z,76.58
2018-12-12T22:14:12.539Z,77.75
2018-12-12T22:16:39.971Z,78.35
2018-12-12T22:19:07.474Z,79.29
2018-12-12T22:21:34.919Z,78.88
2018-12-12T22:24:02.347Z,78.04
2018-12-12T22:26:29.770Z,78.13
2018-12-12T22:28:57.207Z,79.34
2018-12-12T22:31:24.640Z,79.79
2018-12-12T22:33:52.095Z,80.82
2018-12-12T22:36:19.523Z,80.46
2018-12-12T22:38:46.959Z,81.27
2018-12-12T22:41:14.419Z,81.28
2018-12-12T22:43:41.879Z,80.50
2018-12-12T22:46:09.311Z,79.75
2018-12-12T22:48:36.744Z,79.89
2018-12-12T22:51:04.187Z,77.68
2018-12-12T22:53:31.624Z,77.42
2018-12-12T22:55:59.052Z,76.96
2018-12-12T22:58:26.491Z,78.18
2018-12-12T23:01:02.377Z,78.29
2018-12-12T23:03:29.814Z,79.24
2018-12-12T23:05:57.570Z,79.03
2018-12-12T23:08:25.067Z,78.66
2018-12-12T23:10:52.562Z,77.83
2018-12-12T23:13:20.043Z,77.96
2018-12-12T23:15:47.486Z,78.67
2018-12-12T23:18:14.920Z,78.67
2018-12-12T23:20:42.334Z,78.01
2018-12-12T23:23:09.792Z,77.96
2018-12-12T23:25:37.294Z,77.94
2018-12-12T23:28:04.731Z,77.57
2018-12-12T23:30:32.159Z,77.24
2018-12-12T23:32:59.675Z,77.81
2018-12-12T23:35:27.105Z,78.74
2018-12-12T23:37:54.618Z,79.02
2018-12-12T23:40:22.143Z,78.95
2018-12-12T23:42:49.566Z,78.87
2018-12-12T23:45:17.660Z,78.96
2018-12-12T23:47:45.136Z,79.87
2018-12-12T23:50:12.582Z,79.49
2018-12-12T23:52:40.047Z,79.28
2018-12-12T23:55:07.474Z,79.70
2018-12-12T23:57:34.911Z,79.30
